Time;durP1;ratioP1;P1;durP2;ratioP2;P2;SDS_P1;SDS_P2;PMS_P1;PMS_P2;Temp;Humidity;BMP_temperature;BMP_pressure;BME280_temperature;BME280_humidity;BME280_pressure;Samples;Min_cycle;Max_cycle;Signal;HPM_P1;HPM_P2
2021/08/09 00:00:37;;;;;;;;;;;;;;;22.01;53.53;100914.63;5107972;27;19924;-63
2021/08/09 00:03:05;;;;;;;;;;;;;;;22.02;53.65;100915.47;5106110;27;19923;-63
2021/08/09 00:05:34;;;;;;;;;;;;;;;22.01;53.85;100914.63;5111071;28;19988;-63
2021/08/09 00:08:02;;;;;;;;;;;;;;;22.01;53.71;100914.63;5109825;27;20011;-63
2021/08/09 00:10:31;;;;;;;;;;;;;;;22.01;53.64;100914.63;5110838;27;19997;-63
2021/08/09 00:12:59;;;;;;;;;;;;;;;22.01;53.75;100911.94;5106824;27;19938;-62
2021/08/09 00:15:27;;;;;;;;;;;;;;;22.02;53.63;100912.78;5105094;27;19928;-62
2021/08/09 00:17:55;;;;;;;;;;;;;;;22.01;53.44;100914.63;5109170;28;19938;-63
2021/08/09 00:20:24;;;;;;;;;;;;;;;22.02;53.68;100910.09;5109804;27;19946;-63
2021/08/09 00:22:53;;;;;;;;;;;;;;;22.02;53.58;100918.16;5106942;28;19927;-63
2021/08/09 00:25:21;;;;;;;;;;;;;;;22.01;53.26;100924.50;5108439;28;19924;-63
2021/08/09 00:27:49;;;;;;;;;;;;;;;22.01;53.61;100922.69;5110384;27;19969;-64
2021/08/09 00:30:16;;;;;;;;;;;;;;;22.03;53.42;100936.06;5107116;27;19960;-63
2021/08/09 00:32:44;;;;;;;;;;;;;;;22.02;53.40;100931.63;5106195;28;19928;-63
2021/08/09 00:35:13;;;;;;;;;;;;;;;22.02;53.03;100935.19;5109789;27;19985;-63
2021/08/09 00:37:41;;;;;;;;;;;;;;;22.02;53.33;100940.59;5119905;27;19924;-63
2021/08/09 00:40:12;;;;;;;;;;;;;;;22.02;53.29;100935.19;5102032;27;19995;-62
2021/08/09 00:42:40;;;;;;;;;;;;;;;22.03;53.42;100938.75;5110050;28;19932;-62
2021/08/09 00:45:09;;;;;;;;;;;;;;;22.03;53.33;100930.66;5112569;28;19967;-62
2021/08/09 00:47:37;;;;;;;;;;;;;;;22.03;53.39;100936.91;5105444;28;20069;-63
2021/08/09 00:50:06;;;;;;;;;;;;;;;22.03;52.92;100936.91;5135216;27;19928;-63
2021/08/09 00:52:34;;;;;;;;;;;;;;;22.04;52.82;100943.16;5106150;28;20394;-63
2021/08/09 00:55:04;;;;;;;;;;;;;;;22.04;53.44;100935.09;5110063;28;20482;-63
2021/08/09 00:57:34;;;;;;;;;;;;;;;22.03;53.72;100928.81;5105859;28;19935;-63
2021/08/09 01:00:04;;;;;;;;;;;;;;;22.04;53.35;100935.09;5109814;28;20054;-63
2021/08/09 01:02:37;;;;;;;;;;;;;;;22.05;53.44;100939.50;5122047;27;19928;-63
2021/08/09 01:05:06;;;;;;;;;;;;;;;22.04;53.57;100935.94;5111356;28;20529;-63
2021/08/09 01:07:36;;;;;;;;;;;;;;;22.05;53.59;100944.91;5104651;28;20007;-63
2021/08/09 01:10:07;;;;;;;;;;;;;;;22.05;53.04;100953.81;5139041;27;20316;-63
2021/08/09 01:12:42;;;;;;;;;;;;;;;22.05;53.16;100947.59;5137148;27;19928;-63
2021/08/09 01:15:13;;;;;;;;;;;;;;;22.05;52.97;100942.19;5114442;28;19931;-62
2021/08/09 01:17:46;;;;;;;;;;;;;;;22.05;53.52;100940.34;5107909;28;20230;-63
2021/08/09 01:20:20;;;;;;;;;;;;;;;22.05;53.73;100937.66;5106045;28;19928;-63
2021/08/09 01:22:59;;;;;;;;;;;;;;;22.05;53.51;100937.66;5106849;28;19924;-63
2021/08/09 01:25:33;;;;;;;;;;;;;;;22.06;52.93;100935.81;5107642;28;19935;-63
2021/08/09 01:28:04;;;;;;;;;;;;;;;22.05;52.89;100945.75;5108132;28;20032;-63
2021/08/09 01:30:32;;;;;;;;;;;;;;;22.05;53.13;100942.19;5108579;28;19956;-62
2021/08/09 01:33:00;;;;;;;;;;;;;;;22.05;53.46;100945.75;5110792;28;19928;-63
2021/08/09 01:35:29;;;;;;;;;;;;;;;22.05;53.41;100943.06;5107882;28;19932;-63
2021/08/09 01:38:01;;;;;;;;;;;;;;;22.06;53.63;100951.97;5111864;28;20276;-63
2021/08/09 01:40:37;;;;;;;;;;;;;;;22.06;53.32;100949.28;5110713;28;19935;-62
2021/08/09 01:43:06;;;;;;;;;;;;;;;22.05;53.29;100961.91;5101321;28;19932;-63
2021/08/09 01:45:36;;;;;;;;;;;;;;;22.05;53.17;100955.66;5109417;28;20344;-63
2021/08/09 01:48:05;;;;;;;;;;;;;;;22.04;53.26;100954.78;5114300;28;20031;-63
2021/08/09 01:50:38;;;;;;;;;;;;;;;22.05;52.97;100956.53;5108726;28;19927;-63
2021/08/09 01:53:09;;;;;;;;;;;;;;;22.05;52.89;100956.53;5107484;28;19981;-63
2021/08/09 01:55:37;;;;;;;;;;;;;;;22.05;53.03;100956.53;5113434;28;19934;-63
2021/08/09 01:58:09;;;;;;;;;;;;;;;22.04;53.13;100960.19;5106904;28;19932;-63
2021/08/09 02:00:39;;;;;;;;;;;;;;;22.05;53.09;100961.91;5106562;28;20388;-63
2021/08/09 02:03:07;;;;;;;;;;;;;;;22.06;53.08;100954.66;5108063;27;20497;-63
2021/08/09 02:05:36;;;;;;;;;;;;;;;22.06;52.98;100957.38;5106885;27;19928;-63
2021/08/09 02:08:11;;;;;;;;;;;;;;;22.05;52.90;100967.28;5128115;27;19996;-63
2021/08/09 02:10:39;;;;;;;;;;;;;;;22.06;53.00;100965.44;5117119;27;20320;-63
2021/08/09 02:13:17;;;;;;;;;;;;;;;22.08;53.01;100970.75;5109725;28;22047;-62
2021/08/09 02:15:51;;;;;;;;;;;;;;;22.07;53.06;100967.19;5104285;27;19946;-63
2021/08/09 02:18:24;;;;;;;;;;;;;;;22.08;53.14;100966.22;5109653;27;19927;-62
2021/08/09 02:20:56;;;;;;;;;;;;;;;22.08;53.27;100968.06;5111955;27;19959;-63
2021/08/09 02:23:29;;;;;;;;;;;;;;;22.07;52.74;100964.47;5141641;27;19930;-63
2021/08/09 02:25:58;;;;;;;;;;;;;;;22.07;53.04;100964.47;5141701;27;19955;-63
2021/08/09 02:28:29;;;;;;;;;;;;;;;22.07;52.86;100969.88;5111676;27;19924;-63
2021/08/09 02:30:59;;;;;;;;;;;;;;;22.07;52.93;100971.72;5115959;27;19980;-63
2021/08/09 02:33:29;;;;;;;;;;;;;;;22.05;52.87;100967.28;5114204;27;19935;-63
2021/08/09 02:36:01;;;;;;;;;;;;;;;22.06;53.15;100968.13;5133184;27;20009;-62
2021/08/09 02:38:30;;;;;;;;;;;;;;;22.06;53.27;100968.13;5108390;27;19995;-62
2021/08/09 02:40:58;;;;;;;;;;;;;;;22.07;53.27;100969.03;5125635;27;19928;-62
2021/08/09 02:43:29;;;;;;;;;;;;;;;22.07;53.14;100967.19;5110106;27;19924;-62
2021/08/09 02:45:58;;;;;;;;;;;;;;;22.07;53.20;100972.56;5136633;27;19955;-62
2021/08/09 02:48:27;;;;;;;;;;;;;;;22.07;52.99;100971.72;5115864;27;19932;-63
2021/08/09 02:50:56;;;;;;;;;;;;;;;22.05;53.05;100967.28;5138359;27;19927;-63
2021/08/09 02:53:25;;;;;;;;;;;;;;;22.07;52.99;100963.63;5110966;27;19923;-62
2021/08/09 02:55:55;;;;;;;;;;;;;;;22.05;53.35;100970.00;5110271;27;20360;-63
2021/08/09 02:58:23;;;;;;;;;;;;;;;22.05;52.76;100970.00;5121347;27;19936;-63
2021/08/09 03:00:54;;;;;;;;;;;;;;;22.05;53.14;100970.00;5108794;27;20301;-63
2021/08/09 03:03:22;;;;;;;;;;;;;;;22.07;52.71;100979.78;5112082;27;19956;-63
2021/08/09 03:05:52;;;;;;;;;;;;;;;22.06;52.41;100968.13;5119449;27;20052;-63
2021/08/09 03:08:21;;;;;;;;;;;;;;;22.07;52.26;100979.78;5110277;27;19928;-63
2021/08/09 03:10:49;;;;;;;;;;;;;;;22.07;52.79;100977.09;5108322;27;19934;-61
2021/08/09 03:13:20;;;;;;;;;;;;;;;22.07;52.46;100974.41;5140024;27;19935;-61
2021/08/09 03:15:49;;;;;;;;;;;;;;;22.06;52.84;100973.53;5107279;27;20018;-60
2021/08/09 03:18:19;;;;;;;;;;;;;;;22.07;52.75;100974.41;5104305;28;19935;-61
2021/08/09 03:20:50;;;;;;;;;;;;;;;22.06;52.63;100973.53;5107626;27;19928;-61
2021/08/09 03:23:18;;;;;;;;;;;;;;;22.07;52.61;100977.94;5108360;27;20061;-60
2021/08/09 03:25:46;;;;;;;;;;;;;;;22.08;52.38;100976.13;5105703;28;19930;-61
2021/08/09 03:28:13;;;;;;;;;;;;;;;22.08;53.22;100973.44;5102456;27;19928;-60
2021/08/09 03:30:42;;;;;;;;;;;;;;;22.08;52.96;100973.44;5142128;27;19935;-61
2021/08/09 03:33:10;;;;;;;;;;;;;;;22.08;52.93;100978.84;5128051;27;19928;-61
2021/08/09 03:35:40;;;;;;;;;;;;;;;22.08;52.86;100973.44;5127875;27;19939;-61
2021/08/09 03:38:08;;;;;;;;;;;;;;;22.08;52.66;100974.28;5105467;27;21046;-60
2021/08/09 03:40:36;;;;;;;;;;;;;;;22.07;52.79;100967.19;5108677;27;19949;-61
2021/08/09 03:43:05;;;;;;;;;;;;;;;22.07;52.86;100974.41;5122287;27;19934;-60
2021/08/09 03:45:33;;;;;;;;;;;;;;;22.08;52.66;100973.44;5110109;27;19943;-61
2021/08/09 03:48:01;;;;;;;;;;;;;;;22.08;52.75;100973.44;5106997;27;19932;-61
2021/08/09 03:50:29;;;;;;;;;;;;;;;22.09;52.64;100975.13;5106229;28;19927;-62
2021/08/09 03:52:59;;;;;;;;;;;;;;;22.08;52.74;100982.38;5110025;28;20014;-61
2021/08/09 03:55:27;;;;;;;;;;;;;;;22.08;52.22;100982.38;5113550;28;19953;-61
2021/08/09 03:57:55;;;;;;;;;;;;;;;22.07;52.19;100977.09;5108381;27;20969;-61
2021/08/09 04:00:23;;;;;;;;;;;;;;;22.08;52.24;100976.13;5108176;27;19934;-61
2021/08/09 04:02:52;;;;;;;;;;;;;;;22.08;52.50;100984.22;5109741;27;19938;-61
2021/08/09 04:05:31;;;;;;;;;;;;;;;22.09;51.99;100983.22;5133752;27;19970;-61
2021/08/09 04:08:00;;;;;;;;;;;;;;;22.08;51.73;100978.84;5109292;27;19938;-62
2021/08/09 04:10:28;;;;;;;;;;;;;;;22.07;52.31;100977.94;5111420;27;19931;-61
2021/08/09 04:12:56;;;;;;;;;;;;;;;22.08;51.82;100984.22;5136572;27;19935;-61
2021/08/09 04:15:26;;;;;;;;;;;;;;;22.08;52.72;100984.22;5108550;27;19928;-61
2021/08/09 04:17:57;;;;;;;;;;;;;;;22.07;51.82;100986.03;5134472;27;19932;-61
2021/08/09 04:20:25;;;;;;;;;;;;;;;22.07;51.93;100979.78;5105586;28;19963;-61
2021/08/09 04:22:53;;;;;;;;;;;;;;;22.08;52.16;100985.06;5106957;27;19934;-61
2021/08/09 04:25:24;;;;;;;;;;;;;;;22.08;51.87;100981.53;5110983;27;19923;-61
2021/08/09 04:27:53;;;;;;;;;;;;;;;22.08;51.96;100984.22;5111719;27;19939;-61
2021/08/09 04:30:21;;;;;;;;;;;;;;;22.08;51.68;100987.75;5103683;28;19938;-61
2021/08/09 04:32:49;;;;;;;;;;;;;;;22.08;51.61;100986.91;5105480;27;20344;-61
2021/08/09 04:35:18;;;;;;;;;;;;;;;22.09;51.95;100985.91;5113083;27;19949;-61
2021/08/09 04:37:50;;;;;;;;;;;;;;;22.09;51.99;100986.78;5107372;28;19928;-61
2021/08/09 04:40:18;;;;;;;;;;;;;;;22.08;52.08;100993.16;5108959;28;20339;-61
2021/08/09 04:42:47;;;;;;;;;;;;;;;22.09;51.83;100996.69;5107068;28;20308;-61
2021/08/09 04:45:19;;;;;;;;;;;;;;;22.08;52.40;101003.91;5106085;28;19931;-60
2021/08/09 04:47:49;;;;;;;;;;;;;;;22.09;52.19;100996.69;5112477;28;19930;-61
2021/08/09 04:50:17;;;;;;;;;;;;;;;22.09;51.87;101005.66;5108661;28;19981;-61
2021/08/09 04:52:46;;;;;;;;;;;;;;;22.09;52.44;101007.47;5109602;28;19946;-61
2021/08/09 04:55:22;;;;;;;;;;;;;;;22.09;52.30;101008.34;5113871;28;19932;-61
2021/08/09 04:57:54;;;;;;;;;;;;;;;22.10;52.06;101014.59;5111013;28;19962;-61
2021/08/09 05:00:25;;;;;;;;;;;;;;;22.10;51.87;101011.88;5117461;27;20072;-60
2021/08/09 05:02:54;;;;;;;;;;;;;;;22.10;52.12;101009.19;5125355;27;19966;-61
2021/08/09 05:05:22;;;;;;;;;;;;;;;22.11;51.59;101021.69;5111080;28;20259;-61
2021/08/09 05:07:53;;;;;;;;;;;;;;;22.11;52.27;101017.16;5121685;27;19928;-61
2021/08/09 05:10:23;;;;;;;;;;;;;;;22.11;52.03;101006.38;5120983;27;19977;-61
2021/08/09 05:12:52;;;;;;;;;;;;;;;22.11;52.27;101006.38;5103441;28;19937;-61
2021/08/09 05:15:22;;;;;;;;;;;;;;;22.11;51.90;101009.06;5101291;28;20038;-61
2021/08/09 05:17:50;;;;;;;;;;;;;;;22.11;52.03;101017.16;5107572;28;20027;-61
2021/08/09 05:20:19;;;;;;;;;;;;;;;22.12;51.96;101020.72;5107495;28;19959;-61
2021/08/09 05:22:48;;;;;;;;;;;;;;;22.12;51.92;101015.34;5105899;28;19931;-61
2021/08/09 05:25:16;;;;;;;;;;;;;;;22.12;52.21;101024.28;5109073;28;19927;-61
2021/08/09 05:27:44;;;;;;;;;;;;;;;22.12;52.11;101023.44;5103395;28;20026;-60
2021/08/09 05:30:12;;;;;;;;;;;;;;;22.13;52.16;101027.81;5103823;28;19928;-61
2021/08/09 05:32:42;;;;;;;;;;;;;;;22.13;52.13;101022.44;5101668;28;19938;-61
2021/08/09 05:35:10;;;;;;;;;;;;;;;22.12;52.10;101021.59;5102287;27;19928;-61
2021/08/09 05:37:38;;;;;;;;;;;;;;;22.14;52.20;101021.47;5109936;27;20098;-62
2021/08/09 05:40:08;;;;;;;;;;;;;;;22.15;51.97;101009.72;5110395;27;19923;-61
2021/08/09 05:42:37;;;;;;;;;;;;;;;22.14;52.06;101008.88;5105063;27;20041;-60
2021/08/09 05:45:07;;;;;;;;;;;;;;;22.15;51.86;101018.66;5111069;27;19932;-61
2021/08/09 05:47:38;;;;;;;;;;;;;;;22.16;51.79;101016.84;5103118;27;20044;-61
2021/08/09 05:50:11;;;;;;;;;;;;;;;22.17;51.99;101022.13;5111941;27;19924;-63
2021/08/09 05:52:48;;;;;;;;;;;;;;;22.20;52.08;101029.97;5107667;27;19951;-64
2021/08/09 05:55:18;;;;;;;;;;;;;;;22.20;52.26;101023.72;5109155;28;19958;-62
2021/08/09 05:57:46;;;;;;;;;;;;;;;22.21;52.24;101020.06;5110009;27;19928;-62
2021/08/09 06:00:15;;;;;;;;;;;;;;;22.24;52.28;101029.75;5111892;27;20049;-62
2021/08/09 06:02:47;;;;;;;;;;;;;;;22.26;52.43;101027.81;5105937;27;19924;-65
2021/08/09 06:05:28;;;;;;;;;;;;;;;22.27;52.55;101029.53;5107198;27;19928;-62
2021/08/09 06:07:59;;;;;;;;;;;;;;;22.28;52.48;101033.94;5109625;28;19924;-62
2021/08/09 06:10:27;;;;;;;;;;;;;;;22.29;52.58;101036.53;5145044;27;19928;-62
2021/08/09 06:12:58;;;;;;;;;;;;;;;22.28;52.47;101029.41;5105737;27;20003;-62
2021/08/09 06:15:27;;;;;;;;;;;;;;;22.29;52.54;101041.91;5112658;27;19931;-62
2021/08/09 06:17:55;;;;;;;;;;;;;;;22.29;52.42;101043.75;5112084;27;20042;-61
2021/08/09 06:20:23;;;;;;;;;;;;;;;22.31;52.36;101039.09;5109654;27;20434;-63
2021/08/09 06:22:53;;;;;;;;;;;;;;;22.33;52.45;101045.25;5102240;28;19928;-65
2021/08/09 06:25:21;;;;;;;;;;;;;;;22.37;52.33;101044.09;5104957;27;19995;-63
2021/08/09 06:27:50;;;;;;;;;;;;;;;22.38;52.23;101045.81;5107999;27;19945;-65
2021/08/09 06:30:20;;;;;;;;;;;;;;;22.42;53.20;101050.00;5099906;28;19954;-64
2021/08/09 06:32:48;;;;;;;;;;;;;;;22.43;52.90;101042.78;5108374;27;19963;-64
2021/08/09 06:35:16;;;;;;;;;;;;;;;22.45;53.45;101047.09;5108253;28;19993;-61
2021/08/09 06:37:44;;;;;;;;;;;;;;;22.46;53.29;101039.88;5106594;27;19928;-59
2021/08/09 06:40:14;;;;;;;;;;;;;;;22.49;54.07;101045.03;5103990;27;19983;-60
2021/08/09 06:42:43;;;;;;;;;;;;;;;22.50;53.40;101053.00;5125765;27;19962;-60
2021/08/09 06:45:17;;;;;;;;;;;;;;;22.52;53.33;101050.19;5100066;28;19934;-61
2021/08/09 06:47:47;;;;;;;;;;;;;;;22.54;53.36;101050.94;5138617;27;19927;-59
2021/08/09 06:50:16;;;;;;;;;;;;;;;22.58;53.62;101057.00;5105745;27;19934;-59
2021/08/09 06:52:44;;;;;;;;;;;;;;;22.58;53.85;101063.22;5103193;28;19924;-58
2021/08/09 06:55:13;;;;;;;;;;;;;;;22.59;52.52;101056.00;5139789;27;19943;-65
2021/08/09 06:57:41;;;;;;;;;;;;;;;21.16;57.01;101057.78;5136358;27;19928;-59
2021/08/09 07:00:11;;;;;;;;;;;;;;;20.45;56.23;101058.81;5105696;28;19945;-59
2021/08/09 07:02:39;;;;;;;;;;;;;;;20.19;57.50;101064.88;5101651;28;19950;-62
2021/08/09 07:05:07;;;;;;;;;;;;;;;20.75;55.55;101066.78;5103072;28;19924;-64
2021/08/09 07:07:38;;;;;;;;;;;;;;;20.87;54.65;101065.94;5112045;27;20386;-62
2021/08/09 07:10:06;;;;;;;;;;;;;;;20.73;55.95;101068.69;5105113;28;20019;-64
2021/08/09 07:12:41;;;;;;;;;;;;;;;20.69;56.85;101061.75;5099690;28;19962;-62
2021/08/09 07:15:09;;;;;;;;;;;;;;;20.75;52.68;101066.78;5104695;27;19928;-63
2021/08/09 07:17:39;;;;;;;;;;;;;;;20.97;50.68;101063.53;5105010;27;20051;-63
2021/08/09 07:20:09;;;;;;;;;;;;;;;20.95;49.73;101061.91;5104568;28;19928;-62
2021/08/09 07:22:43;;;;;;;;;;;;;;;20.84;49.29;101058.09;5107679;28;19924;-64
2021/08/09 07:25:13;;;;;;;;;;;;;;;20.86;49.66;101064.22;5100116;28;19924;-64
2021/08/09 07:27:43;;;;;;;;;;;;;;;20.89;49.14;101050.59;5140887;27;19924;-61
2021/08/09 07:30:13;;;;;;;;;;;;;;;20.97;50.28;101055.47;5114412;28;19950;-61
2021/08/09 07:32:41;;;;;;;;;;;;;;;20.92;51.20;101056.72;5120580;27;19928;-67
2021/08/09 07:35:10;;;;;;;;;;;;;;;20.92;51.14;101059.41;5103785;28;20035;-60
2021/08/09 07:37:41;;;;;;;;;;;;;;;20.92;51.03;101051.34;5106165;27;20053;-59
2021/08/09 07:40:10;;;;;;;;;;;;;;;20.87;49.76;101057.03;5107509;28;19935;-64
2021/08/09 07:42:39;;;;;;;;;;;;;;;20.78;49.24;101061.19;5106272;28;19938;-61
2021/08/09 07:45:09;;;;;;;;;;;;;;;20.82;50.49;101062.69;5100422;28;20127;-60
2021/08/09 07:47:38;;;;;;;;;;;;;;;20.85;48.62;101070.56;5140595;27;19936;-61
2021/08/09 07:50:07;;;;;;;;;;;;;;;20.74;50.13;101070.41;5111097;28;19990;-60
2021/08/09 07:52:36;;;;;;;;;;;;;;;20.66;51.12;101054.75;5106967;28;19935;-61
2021/08/09 07:55:07;;;;;;;;;;;;;;;20.69;50.81;101059.06;5109413;28;20147;-61
2021/08/09 07:57:35;;;;;;;;;;;;;;;20.61;48.84;101059.56;5111736;28;19928;-61
2021/08/09 08:00:04;;;;;;;;;;;;;;;20.66;48.57;101068.19;5111869;28;19924;-62
2021/08/09 08:02:43;;;;;;;;;;;;;;;20.55;48.23;101065.31;5104811;28;19935;-59
2021/08/09 08:05:16;;;;;;;;;;;;;;;20.55;48.31;101068.91;5111734;28;19952;-65
2021/08/09 08:07:44;;;;;;;;;;;;;;;20.56;49.38;101075.13;5140869;27;19928;-63
2021/08/09 08:10:12;;;;;;;;;;;;;;;20.61;50.21;101064.94;5116518;27;19935;-63
2021/08/09 08:12:41;;;;;;;;;;;;;;;20.69;50.11;101072.50;5107258;28;19927;-60
2021/08/09 08:15:12;;;;;;;;;;;;;;;20.33;53.01;101060.47;5113249;28;19928;-59
2021/08/09 08:17:43;;;;;;;;;;;;;;;20.12;52.26;101065.38;5108328;28;19946;-57
2021/08/09 08:20:13;;;;;;;;;;;;;;;20.47;48.74;101073.88;5101440;28;19935;-59
2021/08/09 08:22:41;;;;;;;;;;;;;;;20.53;48.93;101073.50;5107541;28;20008;-61
2021/08/09 08:25:13;;;;;;;;;;;;;;;20.61;48.16;101074.84;5111725;28;19924;-65
2021/08/09 08:27:43;;;;;;;;;;;;;;;20.56;47.72;101075.13;5106901;28;19928;-64
2021/08/09 08:30:12;;;;;;;;;;;;;;;20.46;47.76;101076.66;5102472;28;19935;-64
2021/08/09 08:32:59;;;;;;;;;;;;;;;20.45;49.52;101085.69;5127543;27;19943;-63
2021/08/09 08:35:27;;;;;;;;;;;;;;;20.35;50.49;101075.53;5112751;28;19924;-64
2021/08/09 08:37:55;;;;;;;;;;;;;;;20.10;53.10;101084.25;5108842;28;19924;-64
2021/08/09 08:40:27;;;;;;;;;;;;;;;19.97;54.29;101086.84;5101853;28;19935;-65
2021/08/09 08:42:55;;;;;;;;;;;;;;;19.92;53.91;101083.56;5102769;28;19958;-64
2021/08/09 08:45:24;;;;;;;;;;;;;;;19.91;53.32;101087.25;5101372;28;19955;-64
2021/08/09 08:47:59;;;;;;;;;;;;;;;19.83;55.55;101081.44;5077975;28;19925;-64
2021/08/09 08:50:32;;;;;;;;;;;;;;;19.74;53.31;101094.47;5073578;28;19951;-64
2021/08/09 08:53:01;;;;;;;;;;;;;;;20.15;49.51;101092.91;5067777;28;19956;-64
2021/08/09 08:55:29;;;;;;;;;;;;;;;20.09;48.94;101092.44;5076810;28;20465;-64
2021/08/09 08:57:56;;;;;;;;;;;;;;;20.06;48.13;101094.31;5068410;28;19928;-65
2021/08/09 09:00:25;;;;;;;;;;;;;;;19.87;48.08;101094.63;5067644;28;19963;-61
2021/08/09 09:02:52;;;;;;;;;;;;;;;19.79;48.33;101107.63;5064920;28;19932;-64
2021/08/09 09:05:23;;;;;;;;;;;;;;;19.74;48.60;101099.81;5058457;28;19928;-63
2021/08/09 09:07:55;;;;;;;;;;;;;;;19.86;50.41;101098.25;5068612;28;19933;-64
2021/08/09 09:10:24;;;;;;;;;;;;;;;20.15;50.49;101100.09;5075442;28;19958;-62
2021/08/09 09:13:13;;;;;;;;;;;;;;;20.18;49.26;101103.44;5061667;28;19928;-64
2021/08/09 09:15:55;;;;;;;;;;;;;;;20.08;49.52;101099.63;5079474;28;19928;-64
2021/08/09 09:18:24;;;;;;;;;;;;;;;20.33;49.27;101108.81;5062341;28;19933;-64
2021/08/09 09:20:53;;;;;;;;;;;;;;;20.31;49.68;101119.66;5066569;28;19936;-63
2021/08/09 09:23:22;;;;;;;;;;;;;;;20.53;49.73;101115.63;5065599;28;19975;-64
2021/08/09 09:25:51;;;;;;;;;;;;;;;20.54;48.63;101114.69;5064118;28;19933;-64
2021/08/09 09:28:23;;;;;;;;;;;;;;;20.65;48.67;101119.38;5073332;28;20031;-62
2021/08/09 09:30:51;;;;;;;;;;;;;;;20.67;48.41;101123.69;5069851;28;19936;-65
2021/08/09 09:33:19;;;;;;;;;;;;;;;20.56;48.87;101123.50;5065609;28;19939;-63
2021/08/09 09:35:49;;;;;;;;;;;;;;;20.47;48.56;101127.63;5065181;28;19933;-63
2021/08/09 09:38:19;;;;;;;;;;;;;;;20.40;50.17;101128.97;5068504;28;19929;-65
2021/08/09 09:40:47;;;;;;;;;;;;;;;20.33;49.57;101128.50;5071101;28;19935;-63
2021/08/09 09:43:16;;;;;;;;;;;;;;;20.30;48.23;101126.00;5061295;28;20054;-62
2021/08/09 09:45:53;;;;;;;;;;;;;;;20.36;50.41;101128.28;5076170;28;19937;-63
2021/08/09 09:48:31;;;;;;;;;;;;;;;20.23;49.46;101128.19;5108802;28;19932;-65
2021/08/09 09:51:08;;;;;;;;;;;;;;;20.26;49.08;101126.28;5113506;28;20015;-63
2021/08/09 09:53:37;;;;;;;;;;;;;;;20.15;48.49;101130.50;5106229;27;19928;-63
2021/08/09 09:56:05;;;;;;;;;;;;;;;20.17;49.88;101127.72;5103683;28;19928;-63
2021/08/09 09:58:35;;;;;;;;;;;;;;;20.17;50.13;101131.28;5105355;28;19939;-64
2021/08/09 10:01:03;;;;;;;;;;;;;;;20.25;49.89;101125.44;5107267;28;19931;-63
2021/08/09 10:03:31;;;;;;;;;;;;;;;20.20;50.21;101131.09;5106239;28;19937;-62
2021/08/09 10:05:59;;;;;;;;;;;;;;;20.27;49.53;101136.09;5106166;28;19977;-62
2021/08/09 10:08:29;;;;;;;;;;;;;;;20.04;48.16;101138.34;5114775;27;19931;-63
2021/08/09 10:11:00;;;;;;;;;;;;;;;20.06;47.95;101131.06;5111586;28;19995;-64
2021/08/09 10:13:28;;;;;;;;;;;;;;;20.04;47.66;101131.16;5113475;28;19932;-64
2021/08/09 10:15:57;;;;;;;;;;;;;;;20.08;47.30;101137.22;5106046;28;21167;-64
2021/08/09 10:18:28;;;;;;;;;;;;;;;20.21;48.99;101132.81;5106079;28;20027;-63
2021/08/09 10:20:57;;;;;;;;;;;;;;;20.16;50.09;101129.56;5105338;27;19950;-64
2021/08/09 10:23:38;;;;;;;;;;;;;;;20.08;50.33;101142.59;5105214;28;19928;-64
2021/08/09 10:26:08;;;;;;;;;;;;;;;20.00;50.43;101140.38;5110097;28;19923;-64
2021/08/09 10:28:55;;;;;;;;;;;;;;;20.00;50.26;101142.16;5100634;28;19932;-64
2021/08/09 10:31:23;;;;;;;;;;;;;;;19.95;49.12;101152.31;5105502;28;19991;-64
2021/08/09 10:33:52;;;;;;;;;;;;;;;19.96;48.47;101154.06;5109240;28;20461;-63
2021/08/09 10:36:21;;;;;;;;;;;;;;;19.96;47.95;101162.13;5102469;28;19932;-64
2021/08/09 10:38:52;;;;;;;;;;;;;;;20.12;46.89;101153.97;5095565;28;19932;-61
2021/08/09 10:41:33;;;;;;;;;;;;;;;20.07;47.28;101155.13;5110752;28;20065;-59
2021/08/09 10:44:24;;;;;;;;;;;;;;;20.11;46.11;101157.66;5107748;28;19928;-59
2021/08/09 10:46:53;;;;;;;;;;;;;;;20.13;47.88;101161.09;5115368;28;19932;-59
2021/08/09 10:49:43;;;;;;;;;;;;;;;19.93;48.83;101160.47;5109641;28;19946;-59
2021/08/09 10:52:11;;;;;;;;;;;;;;;19.94;49.36;101161.38;5102324;28;19924;-60
2021/08/09 10:54:39;;;;;;;;;;;;;;;19.99;50.54;101165.50;5114098;28;19946;-60
2021/08/09 10:57:09;;;;;;;;;;;;;;;19.96;48.88;101163.00;5106793;28;19952;-60
2021/08/09 10:59:43;;;;;;;;;;;;;;;19.94;48.39;101167.59;5099593;28;19928;-60
2021/08/09 11:02:16;;;;;;;;;;;;;;;20.00;47.35;101166.34;5103630;27;20088;-59
2021/08/09 11:04:44;;;;;;;;;;;;;;;20.13;47.37;101164.66;5099941;28;19924;-61
2021/08/09 11:07:17;;;;;;;;;;;;;;;20.07;46.66;101163.19;5101137;28;19973;-60
2021/08/09 11:09:46;;;;;;;;;;;;;;;20.19;46.71;101163.41;5104114;28;19947;-60
2021/08/09 11:12:25;;;;;;;;;;;;;;;20.17;46.85;101162.63;5107933;27;19928;-60
2021/08/09 11:15:17;;;;;;;;;;;;;;;20.11;48.50;101163.88;5103701;28;19963;-59
2021/08/09 11:17:52;;;;;;;;;;;;;;;20.11;50.43;101163.88;5102413;28;19952;-60
2021/08/09 11:20:22;;;;;;;;;;;;;;;19.98;47.80;101158.38;5112249;28;20018;-60
2021/08/09 11:22:59;;;;;;;;;;;;;;;20.09;46.95;101171.16;5107432;28;19951;-60
2021/08/09 11:25:28;;;;;;;;;;;;;;;19.99;48.95;101170.00;5102202;28;19963;-60
2021/08/09 11:28:03;;;;;;;;;;;;;;;20.03;47.80;101167.03;5114166;28;20148;-59
2021/08/09 11:30:35;;;;;;;;;;;;;;;20.06;46.69;101168.66;5103000;28;19932;-59
2021/08/09 11:33:03;;;;;;;;;;;;;;;20.11;46.35;101171.94;5104445;28;19963;-59
2021/08/09 11:35:31;;;;;;;;;;;;;;;20.20;45.81;101162.47;5105202;28;19993;-59
2021/08/09 11:38:00;;;;;;;;;;;;;;;20.02;48.45;101167.97;5109760;28;19934;-59
2021/08/09 11:40:36;;;;;;;;;;;;;;;19.95;48.60;101165.75;5125246;27;19935;-60
2021/08/09 11:43:05;;;;;;;;;;;;;;;19.85;48.27;101173.50;5113343;28;20246;-59
2021/08/09 11:45:34;;;;;;;;;;;;;;;19.92;48.04;101174.84;5105877;27;19928;-59
2021/08/09 11:48:02;;;;;;;;;;;;;;;20.53;51.41;101167.53;5101167;28;19977;-59
2021/08/09 11:50:37;;;;;;;;;;;;;;;20.94;52.15;101175.81;5107230;28;19951;-60
2021/08/09 11:53:06;;;;;;;;;;;;;;;21.09;52.36;101172.13;5111495;28;20000;-59
2021/08/09 11:55:34;;;;;;;;;;;;;;;21.18;52.52;101176.91;5105359;28;19927;-59
2021/08/09 11:58:02;;;;;;;;;;;;;;;21.26;53.67;101189.81;5108195;27;19935;-59
2021/08/09 12:00:38;;;;;;;;;;;;;;;21.32;53.80;101188.59;5102147;27;19928;-59
2021/08/09 12:03:07;;;;;;;;;;;;;;;21.36;53.92;101190.09;5108448;28;19981;-61
2021/08/09 12:05:36;;;;;;;;;;;;;;;21.38;55.21;101186.34;5103601;28;20313;-59
2021/08/09 12:08:05;;;;;;;;;;;;;;;21.42;54.95;101187.00;5103937;28;19960;-59
2021/08/09 12:10:33;;;;;;;;;;;;;;;21.45;56.52;101194.03;5102789;28;19934;-60
2021/08/09 12:13:02;;;;;;;;;;;;;;;21.48;56.39;101181.19;5098650;28;19950;-59
2021/08/09 12:15:30;;;;;;;;;;;;;;;21.49;56.68;101182.09;5102751;28;20747;-59
2021/08/09 12:18:07;;;;;;;;;;;;;;;21.50;57.23;101184.66;5102400;28;19977;-59
2021/08/09 12:20:35;;;;;;;;;;;;;;;21.51;57.69;101188.22;5106320;28;19995;-59
2021/08/09 12:23:04;;;;;;;;;;;;;;;21.52;57.92;101185.44;5102861;28;20425;-59
2021/08/09 12:25:36;;;;;;;;;;;;;;;21.52;57.74;101187.25;5099793;28;20624;-59
2021/08/09 12:28:06;;;;;;;;;;;;;;;21.52;58.19;101209.66;5105705;28;20337;-61
2021/08/09 12:30:53;;;;;;;;;;;;;;;21.54;58.40;101214.97;5100248;27;19932;-59
2021/08/09 12:33:23;;;;;;;;;;;;;;;21.56;58.45;101213.03;5103368;28;19931;-60
2021/08/09 12:35:50;;;;;;;;;;;;;;;21.58;58.45;101216.50;5109326;28;19954;-59
2021/08/09 12:38:18;;;;;;;;;;;;;;;21.60;58.67;101213.69;5101747;28;19928;-58
2021/08/09 12:40:47;;;;;;;;;;;;;;;21.62;58.49;101215.31;5106756;28;19935;-59
2021/08/09 12:43:16;;;;;;;;;;;;;;;21.67;58.41;101206.94;5100661;28;19992;-58
2021/08/09 12:45:44;;;;;;;;;;;;;;;21.72;58.69;101218.25;5108889;28;19928;-59
2021/08/09 12:48:13;;;;;;;;;;;;;;;21.74;58.47;101210.94;5106998;28;20026;-59
2021/08/09 12:50:43;;;;;;;;;;;;;;;21.80;56.89;101212.34;5104594;28;20400;-59